sensor_id;sensor_type;location;lat;lon;timestamp;P1;durP1;ratioP1;P2;durP2;ratioP2
6939;SDS011;3509;48.510;9.076;2022-08-01T00:00:39;3.47;;;2.90;;
6939;SDS011;3509;48.510;9.076;2022-08-01T00:03:05;3.58;;;2.78;;
6939;SDS011;3509;48.510;9.076;2022-08-01T00:05:31;6.82;;;3.20;;
6939;SDS011;3509;48.510;9.076;2022-08-01T00:07:56;4.25;;;2.90;;
6939;SDS011;3509;48.510;9.076;2022-08-01T00:10:22;3.20;;;2.88;;
6939;SDS011;3509;48.510;9.076;2022-08-01T00:12:48;3.67;;;2.67;;
6939;SDS011;3509;48.510;9.076;2022-08-01T00:15:14;3.42;;;2.97;;
6939;SDS011;3509;48.510;9.076;2022-08-01T00:17:41;3.13;;;2.83;;
6939;SDS011;3509;48.510;9.076;2022-08-01T00:20:09;3.70;;;2.88;;
6939;SDS011;3509;48.510;9.076;2022-08-01T00:22:36;3.88;;;2.88;;
6939;SDS011;3509;48.510;9.076;2022-08-01T00:25:02;4.32;;;3.08;;
6939;SDS011;3509;48.510;9.076;2022-08-01T00:27:29;5.07;;;2.90;;
6939;SDS011;3509;48.510;9.076;2022-08-01T00:29:54;5.28;;;3.05;;
6939;SDS011;3509;48.510;9.076;2022-08-01T00:32:20;3.72;;;3.08;;
6939;SDS011;3509;48.510;9.076;2022-08-01T00:34:45;4.57;;;2.90;;
6939;SDS011;3509;48.510;9.076;2022-08-01T00:37:11;3.63;;;3.00;;
6939;SDS011;3509;48.510;9.076;2022-08-01T00:39:37;6.18;;;3.13;;
6939;SDS011;3509;48.510;9.076;2022-08-01T00:42:09;4.30;;;3.10;;
6939;SDS011;3509;48.510;9.076;2022-08-01T00:44:36;3.15;;;2.88;;
6939;SDS011;3509;48.510;9.076;2022-08-01T00:47:02;3.95;;;3.08;;
6939;SDS011;3509;48.510;9.076;2022-08-01T00:49:29;3.60;;;3.10;;
6939;SDS011;3509;48.510;9.076;2022-08-01T00:51:55;4.05;;;3.00;;
6939;SDS011;3509;48.510;9.076;2022-08-01T00:54:22;4.30;;;3.17;;
6939;SDS011;3509;48.510;9.076;2022-08-01T00:56:48;4.07;;;3.13;;
6939;SDS011;3509;48.510;9.076;2022-08-01T00:59:14;4.38;;;3.28;;
6939;SDS011;3509;48.510;9.076;2022-08-01T01:01:42;3.72;;;3.30;;
6939;SDS011;3509;48.510;9.076;2022-08-01T01:04:09;4.13;;;3.40;;
6939;SDS011;3509;48.510;9.076;2022-08-01T01:17:48;4.30;;;3.15;;
6939;SDS011;3509;48.510;9.076;2022-08-01T01:20:20;3.97;;;3.67;;
6939;SDS011;3509;48.510;9.076;2022-08-01T01:28:12;5.80;;;3.90;;
6939;SDS011;3509;48.510;9.076;2022-08-01T01:30:53;6.10;;;3.50;;
6939;SDS011;3509;48.510;9.076;2022-08-01T01:33:21;4.72;;;3.70;;
6939;SDS011;3509;48.510;9.076;2022-08-01T01:35:53;4.03;;;3.67;;
6939;SDS011;3509;48.510;9.076;2022-08-01T01:38:29;5.63;;;3.58;;
6939;SDS011;3509;48.510;9.076;2022-08-01T01:40:59;4.40;;;3.75;;
6939;SDS011;3509;48.510;9.076;2022-08-01T01:43:26;5.28;;;3.70;;
6939;SDS011;3509;48.510;9.076;2022-08-01T01:45:54;4.05;;;3.65;;
6939;SDS011;3509;48.510;9.076;2022-08-01T01:48:21;4.50;;;4.10;;
6939;SDS011;3509;48.510;9.076;2022-08-01T01:50:48;5.18;;;3.80;;
6939;SDS011;3509;48.510;9.076;2022-08-01T01:53:17;4.70;;;3.83;;
6939;SDS011;3509;48.510;9.076;2022-08-01T01:55:46;3.80;;;3.50;;
6939;SDS011;3509;48.510;9.076;2022-08-01T01:58:14;4.70;;;3.97;;
6939;SDS011;3509;48.510;9.076;2022-08-01T02:00:42;6.53;;;3.95;;
6939;SDS011;3509;48.510;9.076;2022-08-01T02:03:11;5.20;;;3.88;;
6939;SDS011;3509;48.510;9.076;2022-08-01T02:05:38;4.90;;;3.90;;
6939;SDS011;3509;48.510;9.076;2022-08-01T02:08:04;4.35;;;3.95;;
6939;SDS011;3509;48.510;9.076;2022-08-01T02:10:33;4.32;;;3.90;;
6939;SDS011;3509;48.510;9.076;2022-08-01T02:13:01;4.75;;;3.90;;
6939;SDS011;3509;48.510;9.076;2022-08-01T02:15:30;6.03;;;3.95;;
6939;SDS011;3509;48.510;9.076;2022-08-01T02:17:58;4.53;;;4.10;;
6939;SDS011;3509;48.510;9.076;2022-08-01T02:20:29;5.10;;;4.10;;
6939;SDS011;3509;48.510;9.076;2022-08-01T02:22:57;4.38;;;3.90;;
6939;SDS011;3509;48.510;9.076;2022-08-01T02:25:53;6.00;;;4.10;;
6939;SDS011;3509;48.510;9.076;2022-08-01T02:28:25;4.68;;;4.28;;
6939;SDS011;3509;48.510;9.076;2022-08-01T02:31:00;4.55;;;4.15;;
6939;SDS011;3509;48.510;9.076;2022-08-01T02:33:33;5.43;;;4.53;;
6939;SDS011;3509;48.510;9.076;2022-08-01T02:36:02;5.13;;;4.43;;
6939;SDS011;3509;48.510;9.076;2022-08-01T02:38:30;4.53;;;4.00;;
6939;SDS011;3509;48.510;9.076;2022-08-01T02:41:07;5.68;;;4.20;;
6939;SDS011;3509;48.510;9.076;2022-08-01T02:43:36;5.50;;;3.97;;
6939;SDS011;3509;48.510;9.076;2022-08-01T02:46:06;4.57;;;4.05;;
6939;SDS011;3509;48.510;9.076;2022-08-01T02:48:36;4.50;;;3.80;;
6939;SDS011;3509;48.510;9.076;2022-08-01T02:51:05;7.35;;;4.22;;
6939;SDS011;3509;48.510;9.076;2022-08-01T02:53:33;7.63;;;4.22;;
6939;SDS011;3509;48.510;9.076;2022-08-01T02:56:02;6.53;;;4.22;;
6939;SDS011;3509;48.510;9.076;2022-08-01T02:58:30;7.35;;;4.53;;
6939;SDS011;3509;48.510;9.076;2022-08-01T03:00:58;5.10;;;4.60;;
6939;SDS011;3509;48.510;9.076;2022-08-01T03:03:24;5.00;;;4.60;;
6939;SDS011;3509;48.510;9.076;2022-08-01T03:05:51;6.70;;;4.60;;
6939;SDS011;3509;48.510;9.076;2022-08-01T03:08:17;4.72;;;4.32;;
6939;SDS011;3509;48.510;9.076;2022-08-01T03:10:45;5.78;;;4.10;;
6939;SDS011;3509;48.510;9.076;2022-08-01T03:13:13;5.55;;;4.78;;
6939;SDS011;3509;48.510;9.076;2022-08-01T03:15:40;5.90;;;4.75;;
6939;SDS011;3509;48.510;9.076;2022-08-01T03:18:08;5.18;;;4.55;;
6939;SDS011;3509;48.510;9.076;2022-08-01T03:20:36;7.28;;;5.07;;
6939;SDS011;3509;48.510;9.076;2022-08-01T03:23:07;5.80;;;4.80;;
6939;SDS011;3509;48.510;9.076;2022-08-01T03:25:35;5.88;;;5.00;;
6939;SDS011;3509;48.510;9.076;2022-08-01T03:28:03;5.43;;;4.90;;
6939;SDS011;3509;48.510;9.076;2022-08-01T03:30:32;5.47;;;4.97;;
6939;SDS011;3509;48.510;9.076;2022-08-01T03:33:00;6.18;;;4.45;;
6939;SDS011;3509;48.510;9.076;2022-08-01T03:35:28;6.40;;;4.90;;
6939;SDS011;3509;48.510;9.076;2022-08-01T03:38:17;6.60;;;5.20;;
6939;SDS011;3509;48.510;9.076;2022-08-01T03:40:47;5.80;;;4.80;;
6939;SDS011;3509;48.510;9.076;2022-08-01T03:43:22;5.47;;;5.07;;
6939;SDS011;3509;48.510;9.076;2022-08-01T03:45:51;7.25;;;5.47;;
6939;SDS011;3509;48.510;9.076;2022-08-01T03:48:18;4.90;;;4.50;;
6939;SDS011;3509;48.510;9.076;2022-08-01T03:50:51;5.57;;;4.53;;
6939;SDS011;3509;48.510;9.076;2022-08-01T03:53:23;6.95;;;4.88;;
6939;SDS011;3509;48.510;9.076;2022-08-01T03:55:53;5.63;;;5.13;;
6939;SDS011;3509;48.510;9.076;2022-08-01T03:58:20;5.93;;;5.32;;
6939;SDS011;3509;48.510;9.076;2022-08-01T04:00:46;5.95;;;5.35;;
6939;SDS011;3509;48.510;9.076;2022-08-01T04:03:12;7.40;;;5.28;;
6939;SDS011;3509;48.510;9.076;2022-08-01T04:05:42;7.05;;;4.80;;
6939;SDS011;3509;48.510;9.076;2022-08-01T04:08:08;5.80;;;5.30;;
6939;SDS011;3509;48.510;9.076;2022-08-01T04:10:34;8.85;;;5.70;;
6939;SDS011;3509;48.510;9.076;2022-08-01T04:13:01;5.55;;;5.05;;
6939;SDS011;3509;48.510;9.076;2022-08-01T04:15:27;6.28;;;5.45;;
6939;SDS011;3509;48.510;9.076;2022-08-01T04:17:53;5.57;;;5.13;;
6939;SDS011;3509;48.510;9.076;2022-08-01T04:20:19;5.63;;;5.13;;
6939;SDS011;3509;48.510;9.076;2022-08-01T04:22:45;5.90;;;5.15;;
6939;SDS011;3509;48.510;9.076;2022-08-01T04:25:33;5.20;;;4.80;;
6939;SDS011;3509;48.510;9.076;2022-08-01T04:27:59;5.45;;;4.90;;
6939;SDS011;3509;48.510;9.076;2022-08-01T04:30:29;5.28;;;4.88;;
6939;SDS011;3509;48.510;9.076;2022-08-01T04:33:00;6.93;;;5.00;;
6939;SDS011;3509;48.510;9.076;2022-08-01T04:35:27;5.25;;;4.75;;
6939;SDS011;3509;48.510;9.076;2022-08-01T04:37:54;6.65;;;4.93;;
6939;SDS011;3509;48.510;9.076;2022-08-01T04:40:21;5.10;;;4.60;;
6939;SDS011;3509;48.510;9.076;2022-08-01T04:42:48;5.45;;;4.80;;
6939;SDS011;3509;48.510;9.076;2022-08-01T04:45:15;8.40;;;5.00;;
6939;SDS011;3509;48.510;9.076;2022-08-01T04:47:41;5.13;;;4.63;;
6939;SDS011;3509;48.510;9.076;2022-08-01T04:50:08;7.28;;;4.90;;
6939;SDS011;3509;48.510;9.076;2022-08-01T04:52:35;6.78;;;5.05;;
6939;SDS011;3509;48.510;9.076;2022-08-01T04:55:03;5.10;;;4.70;;
6939;SDS011;3509;48.510;9.076;2022-08-01T04:57:31;5.00;;;4.55;;
6939;SDS011;3509;48.510;9.076;2022-08-01T05:00:02;5.40;;;4.90;;
6939;SDS011;3509;48.510;9.076;2022-08-01T05:02:29;5.35;;;4.85;;
6939;SDS011;3509;48.510;9.076;2022-08-01T05:04:54;5.10;;;4.60;;
6939;SDS011;3509;48.510;9.076;2022-08-01T05:07:20;5.97;;;4.97;;
6939;SDS011;3509;48.510;9.076;2022-08-01T05:09:46;5.00;;;4.53;;
6939;SDS011;3509;48.510;9.076;2022-08-01T05:12:12;6.18;;;4.80;;
6939;SDS011;3509;48.510;9.076;2022-08-01T05:14:38;6.13;;;4.80;;
6939;SDS011;3509;48.510;9.076;2022-08-01T05:17:04;8.05;;;5.00;;
6939;SDS011;3509;48.510;9.076;2022-08-01T05:19:32;5.65;;;4.28;;
6939;SDS011;3509;48.510;9.076;2022-08-01T05:22:02;5.28;;;4.15;;
6939;SDS011;3509;48.510;9.076;2022-08-01T05:24:30;3.83;;;3.53;;
6939;SDS011;3509;48.510;9.076;2022-08-01T05:26:57;3.88;;;2.80;;
6939;SDS011;3509;48.510;9.076;2022-08-01T05:29:23;3.42;;;2.95;;
6939;SDS011;3509;48.510;9.076;2022-08-01T05:31:49;3.95;;;3.35;;
6939;SDS011;3509;48.510;9.076;2022-08-01T05:34:15;4.00;;;2.92;;
6939;SDS011;3509;48.510;9.076;2022-08-01T05:36:41;3.60;;;3.30;;
6939;SDS011;3509;48.510;9.076;2022-08-01T05:39:07;3.35;;;3.05;;
6939;SDS011;3509;48.510;9.076;2022-08-01T05:41:33;4.82;;;3.40;;
6939;SDS011;3509;48.510;9.076;2022-08-01T05:44:01;5.80;;;3.38;;
6939;SDS011;3509;48.510;9.076;2022-08-01T05:46:26;7.55;;;2.90;;
6939;SDS011;3509;48.510;9.076;2022-08-01T05:48:52;4.55;;;3.17;;
6939;SDS011;3509;48.510;9.076;2022-08-01T05:51:18;3.17;;;2.60;;
6939;SDS011;3509;48.510;9.076;2022-08-01T05:53:44;5.93;;;2.88;;
6939;SDS011;3509;48.510;9.076;2022-08-01T05:56:09;3.78;;;3.00;;
6939;SDS011;3509;48.510;9.076;2022-08-01T05:58:35;10.25;;;3.50;;
6939;SDS011;3509;48.510;9.076;2022-08-01T06:01:01;8.93;;;3.55;;
6939;SDS011;3509;48.510;9.076;2022-08-01T06:03:27;5.53;;;2.83;;
6939;SDS011;3509;48.510;9.076;2022-08-01T06:05:56;5.72;;;2.95;;
6939;SDS011;3509;48.510;9.076;2022-08-01T06:08:22;12.20;;;3.30;;
6939;SDS011;3509;48.510;9.076;2022-08-01T06:10:48;5.40;;;2.78;;
6939;SDS011;3509;48.510;9.076;2022-08-01T06:13:14;3.67;;;2.50;;
6939;SDS011;3509;48.510;9.076;2022-08-01T06:15:39;4.20;;;2.70;;
6939;SDS011;3509;48.510;9.076;2022-08-01T06:18:05;4.47;;;2.97;;
6939;SDS011;3509;48.510;9.076;2022-08-01T06:20:31;3.20;;;2.78;;
6939;SDS011;3509;48.510;9.076;2022-08-01T06:22:57;5.15;;;2.78;;
6939;SDS011;3509;48.510;9.076;2022-08-01T06:25:22;4.73;;;3.03;;
6939;SDS011;3509;48.510;9.076;2022-08-01T06:27:48;6.68;;;2.90;;
6939;SDS011;3509;48.510;9.076;2022-08-01T06:30:14;3.88;;;2.78;;
6939;SDS011;3509;48.510;9.076;2022-08-01T06:32:40;6.25;;;3.03;;
6939;SDS011;3509;48.510;9.076;2022-08-01T06:35:06;5.97;;;2.88;;
6939;SDS011;3509;48.510;9.076;2022-08-01T06:37:32;4.05;;;2.85;;
6939;SDS011;3509;48.510;9.076;2022-08-01T06:40:04;5.55;;;2.92;;
6939;SDS011;3509;48.510;9.076;2022-08-01T06:42:31;3.97;;;2.70;;
6939;SDS011;3509;48.510;9.076;2022-08-01T06:45:09;3.25;;;2.38;;
6939;SDS011;3509;48.510;9.076;2022-08-01T06:47:37;3.95;;;2.90;;
6939;SDS011;3509;48.510;9.076;2022-08-01T06:50:04;3.92;;;2.90;;
6939;SDS011;3509;48.510;9.076;2022-08-01T06:52:31;6.32;;;2.83;;
6939;SDS011;3509;48.510;9.076;2022-08-01T06:54:56;5.50;;;3.15;;
6939;SDS011;3509;48.510;9.076;2022-08-01T06:57:22;7.25;;;3.00;;
6939;SDS011;3509;48.510;9.076;2022-08-01T06:59:48;4.65;;;3.05;;
6939;SDS011;3509;48.510;9.076;2022-08-01T07:02:13;4.35;;;2.95;;
6939;SDS011;3509;48.510;9.076;2022-08-01T07:04:39;3.28;;;2.53;;
6939;SDS011;3509;48.510;9.076;2022-08-01T07:07:05;3.78;;;2.85;;
6939;SDS011;3509;48.510;9.076;2022-08-01T07:09:30;6.72;;;2.85;;
6939;SDS011;3509;48.510;9.076;2022-08-01T07:11:56;4.50;;;2.88;;
6939;SDS011;3509;48.510;9.076;2022-08-01T07:14:22;7.72;;;3.20;;
6939;SDS011;3509;48.510;9.076;2022-08-01T07:16:48;4.55;;;3.08;;
6939;SDS011;3509;48.510;9.076;2022-08-01T07:19:14;3.38;;;3.08;;
6939;SDS011;3509;48.510;9.076;2022-08-01T07:21:41;5.68;;;3.15;;
6939;SDS011;3509;48.510;9.076;2022-08-01T07:24:07;5.13;;;3.03;;
6939;SDS011;3509;48.510;9.076;2022-08-01T07:26:34;6.55;;;3.03;;
6939;SDS011;3509;48.510;9.076;2022-08-01T07:29:00;6.38;;;3.15;;
6939;SDS011;3509;48.510;9.076;2022-08-01T07:31:25;6.68;;;3.40;;
6939;SDS011;3509;48.510;9.076;2022-08-01T07:33:51;5.22;;;3.15;;
6939;SDS011;3509;48.510;9.076;2022-08-01T07:36:17;4.85;;;2.80;;
6939;SDS011;3509;48.510;9.076;2022-08-01T07:38:43;5.68;;;2.83;;
6939;SDS011;3509;48.510;9.076;2022-08-01T07:41:09;4.35;;;3.03;;
6939;SDS011;3509;48.510;9.076;2022-08-01T07:43:35;4.30;;;3.00;;
6939;SDS011;3509;48.510;9.076;2022-08-01T07:46:01;6.75;;;3.10;;
6939;SDS011;3509;48.510;9.076;2022-08-01T07:48:28;5.97;;;2.90;;
6939;SDS011;3509;48.510;9.076;2022-08-01T07:50:54;4.45;;;2.65;;
6939;SDS011;3509;48.510;9.076;2022-08-01T07:53:20;5.72;;;2.95;;
6939;SDS011;3509;48.510;9.076;2022-08-01T07:55:45;3.10;;;2.42;;
6939;SDS011;3509;48.510;9.076;2022-08-01T07:58:11;6.80;;;2.70;;
6939;SDS011;3509;48.510;9.076;2022-08-01T08:00:37;3.08;;;2.72;;
6939;SDS011;3509;48.510;9.076;2022-08-01T08:03:03;6.45;;;2.35;;
6939;SDS011;3509;48.510;9.076;2022-08-01T08:05:29;5.47;;;2.60;;
6939;SDS011;3509;48.510;9.076;2022-08-01T08:07:54;4.00;;;2.60;;
6939;SDS011;3509;48.510;9.076;2022-08-01T08:10:20;9.52;;;2.80;;
6939;SDS011;3509;48.510;9.076;2022-08-01T08:12:46;5.03;;;2.63;;
6939;SDS011;3509;48.510;9.076;2022-08-01T08:15:13;3.85;;;2.60;;
6939;SDS011;3509;48.510;9.076;2022-08-01T08:17:39;3.30;;;2.40;;
6939;SDS011;3509;48.510;9.076;2022-08-01T08:20:05;4.18;;;2.63;;
6939;SDS011;3509;48.510;9.076;2022-08-01T08:22:32;5.20;;;2.60;;
6939;SDS011;3509;48.510;9.076;2022-08-01T08:24:58;3.72;;;2.60;;
6939;SDS011;3509;48.510;9.076;2022-08-01T08:27:24;4.82;;;2.70;;
6939;SDS011;3509;48.510;9.076;2022-08-01T08:29:50;5.75;;;2.60;;
6939;SDS011;3509;48.510;9.076;2022-08-01T08:32:15;2.97;;;2.38;;
6939;SDS011;3509;48.510;9.076;2022-08-01T08:34:41;3.83;;;2.70;;
6939;SDS011;3509;48.510;9.076;2022-08-01T08:37:07;4.22;;;2.90;;
6939;SDS011;3509;48.510;9.076;2022-08-01T08:39:33;3.20;;;2.70;;
6939;SDS011;3509;48.510;9.076;2022-08-01T08:41:59;2.90;;;2.60;;
6939;SDS011;3509;48.510;9.076;2022-08-01T08:44:27;3.63;;;2.58;;
6939;SDS011;3509;48.510;9.076;2022-08-01T08:46:53;6.30;;;2.58;;
6939;SDS011;3509;48.510;9.076;2022-08-01T08:49:24;5.25;;;2.72;;
6939;SDS011;3509;48.510;9.076;2022-08-01T08:51:52;4.85;;;2.45;;
6939;SDS011;3509;48.510;9.076;2022-08-01T08:54:22;3.28;;;2.70;;
6939;SDS011;3509;48.510;9.076;2022-08-01T08:56:49;4.45;;;2.53;;
6939;SDS011;3509;48.510;9.076;2022-08-01T08:59:16;3.15;;;2.70;;
6939;SDS011;3509;48.510;9.076;2022-08-01T09:01:43;5.75;;;2.70;;
6939;SDS011;3509;48.510;9.076;2022-08-01T09:04:09;7.13;;;3.13;;
6939;SDS011;3509;48.510;9.076;2022-08-01T09:06:35;7.47;;;2.90;;
6939;SDS011;3509;48.510;9.076;2022-08-01T09:09:01;5.88;;;3.03;;
6939;SDS011;3509;48.510;9.076;2022-08-01T09:11:28;6.60;;;2.63;;
6939;SDS011;3509;48.510;9.076;2022-08-01T09:16:33;4.70;;;2.70;;
6939;SDS011;3509;48.510;9.076;2022-08-01T09:20:00;2.92;;;2.63;;
6939;SDS011;3509;48.510;9.076;2022-08-01T09:22:21;3.70;;;2.78;;
6939;SDS011;3509;48.510;9.076;2022-08-01T09:27:30;5.13;;;3.10;;
6939;SDS011;3509;48.510;9.076;2022-08-01T09:30:07;5.07;;;2.83;;
6939;SDS011;3509;48.510;9.076;2022-08-01T09:32:57;3.10;;;2.80;;
6939;SDS011;3509;48.510;9.076;2022-08-01T09:35:30;3.13;;;2.80;;
6939;SDS011;3509;48.510;9.076;2022-08-01T09:38:21;3.03;;;2.53;;
6939;SDS011;3509;48.510;9.076;2022-08-01T09:40:59;4.65;;;2.50;;
6939;SDS011;3509;48.510;9.076;2022-08-01T09:43:26;5.20;;;2.63;;
6939;SDS011;3509;48.510;9.076;2022-08-01T09:45:53;3.63;;;2.53;;
6939;SDS011;3509;48.510;9.076;2022-08-01T09:48:20;3.00;;;2.70;;
6939;SDS011;3509;48.510;9.076;2022-08-01T09:50:47;4.45;;;2.78;;
6939;SDS011;3509;48.510;9.076;2022-08-01T09:53:16;3.30;;;2.80;;
6939;SDS011;3509;48.510;9.076;2022-08-01T09:55:42;2.90;;;2.60;;
6939;SDS011;3509;48.510;9.076;2022-08-01T09:58:09;3.30;;;3.00;;
6939;SDS011;3509;48.510;9.076;2022-08-01T10:00:36;6.47;;;2.70;;
6939;SDS011;3509;48.510;9.076;2022-08-01T10:03:22;3.05;;;2.58;;
6939;SDS011;3509;48.510;9.076;2022-08-01T10:05:50;6.30;;;3.00;;
6939;SDS011;3509;48.510;9.076;2022-08-01T10:08:16;3.72;;;2.80;;
6939;SDS011;3509;48.510;9.076;2022-08-01T10:10:46;3.03;;;2.80;;
6939;SDS011;3509;48.510;9.076;2022-08-01T10:13:31;3.63;;;3.13;;
6939;SDS011;3509;48.510;9.076;2022-08-01T10:15:57;4.17;;;2.70;;
6939;SDS011;3509;48.510;9.076;2022-08-01T10:18:24;3.15;;;2.80;;
6939;SDS011;3509;48.510;9.076;2022-08-01T10:20:51;3.17;;;2.30;;
6939;SDS011;3509;48.510;9.076;2022-08-01T10:23:17;2.50;;;2.30;;
6939;SDS011;3509;48.510;9.076;2022-08-01T10:25:44;4.32;;;2.88;;
6939;SDS011;3509;48.510;9.076;2022-08-01T10:28:13;2.72;;;2.50;;
6939;SDS011;3509;48.510;9.076;2022-08-01T10:30:43;5.30;;;2.80;;
6939;SDS011;3509;48.510;9.076;2022-08-01T10:33:10;2.90;;;2.58;;
6939;SDS011;3509;48.510;9.076;2022-08-01T10:35:36;2.60;;;2.40;;
6939;SDS011;3509;48.510;9.076;2022-08-01T10:38:06;6.13;;;2.60;;
6939;SDS011;3509;48.510;9.076;2022-08-01T10:40:32;2.95;;;2.60;;
6939;SDS011;3509;48.510;9.076;2022-08-01T10:42:58;4.20;;;2.45;;
6939;SDS011;3509;48.510;9.076;2022-08-01T10:45:24;3.75;;;2.50;;
6939;SDS011;3509;48.510;9.076;2022-08-01T10:47:55;3.80;;;2.50;;
6939;SDS011;3509;48.510;9.076;2022-08-01T10:50:33;3.90;;;2.40;;
6939;SDS011;3509;48.510;9.076;2022-08-01T10:53:05;4.35;;;2.63;;
6939;SDS011;3509;48.510;9.076;2022-08-01T10:58:36;4.03;;;2.70;;
6939;SDS011;3509;48.510;9.076;2022-08-01T11:01:15;3.35;;;2.50;;
6939;SDS011;3509;48.510;9.076;2022-08-01T11:03:55;5.05;;;2.75;;
6939;SDS011;3509;48.510;9.076;2022-08-01T11:09:15;2.70;;;2.50;;
6939;SDS011;3509;48.510;9.076;2022-08-01T11:12:01;4.10;;;2.63;;
6939;SDS011;3509;48.510;9.076;2022-08-01T11:14:34;2.70;;;2.50;;
6939;SDS011;3509;48.510;9.076;2022-08-01T11:17:38;2.40;;;2.15;;
6939;SDS011;3509;48.510;9.076;2022-08-01T11:20:18;4.68;;;2.90;;
6939;SDS011;3509;48.510;9.076;2022-08-01T11:30:41;6.15;;;2.63;;
6939;SDS011;3509;48.510;9.076;2022-08-01T11:34:02;4.45;;;2.88;;
6939;SDS011;3509;48.510;9.076;2022-08-01T11:38:45;3.45;;;3.15;;
6939;SDS011;3509;48.510;9.076;2022-08-01T11:41:12;3.58;;;2.92;;
6939;SDS011;3509;48.510;9.076;2022-08-01T11:52:10;4.03;;;3.20;;
6939;SDS011;3509;48.510;9.076;2022-08-01T11:54:37;3.90;;;3.30;;
6939;SDS011;3509;48.510;9.076;2022-08-01T11:57:04;3.50;;;3.20;;
6939;SDS011;3509;48.510;9.076;2022-08-01T11:59:35;3.30;;;2.83;;
6939;SDS011;3509;48.510;9.076;2022-08-01T12:02:02;5.60;;;3.30;;
6939;SDS011;3509;48.510;9.076;2022-08-01T12:04:45;6.45;;;3.10;;
6939;SDS011;3509;48.510;9.076;2022-08-01T12:07:15;4.47;;;2.83;;
6939;SDS011;3509;48.510;9.076;2022-08-01T12:09:42;3.25;;;2.95;;
6939;SDS011;3509;48.510;9.076;2022-08-01T12:12:08;3.78;;;2.75;;
6939;SDS011;3509;48.510;9.076;2022-08-01T12:14:34;3.83;;;2.85;;
6939;SDS011;3509;48.510;9.076;2022-08-01T12:17:00;3.38;;;3.05;;
6939;SDS011;3509;48.510;9.076;2022-08-01T12:19:26;3.70;;;3.13;;
6939;SDS011;3509;48.510;9.076;2022-08-01T12:22:05;3.35;;;2.97;;
6939;SDS011;3509;48.510;9.076;2022-08-01T12:24:31;3.50;;;3.13;;
6939;SDS011;3509;48.510;9.076;2022-08-01T12:27:02;6.95;;;3.20;;
6939;SDS011;3509;48.510;9.076;2022-08-01T12:29:32;3.25;;;2.95;;
6939;SDS011;3509;48.510;9.076;2022-08-01T12:32:03;4.15;;;3.15;;
6939;SDS011;3509;48.510;9.076;2022-08-01T12:34:29;3.88;;;2.88;;
6939;SDS011;3509;48.510;9.076;2022-08-01T12:36:56;3.78;;;3.38;;
6939;SDS011;3509;48.510;9.076;2022-08-01T12:39:33;5.68;;;3.00;;
6939;SDS011;3509;48.510;9.076;2022-08-01T12:41:59;4.13;;;3.00;;
6939;SDS011;3509;48.510;9.076;2022-08-01T12:44:26;4.30;;;3.08;;
6939;SDS011;3509;48.510;9.076;2022-08-01T12:46:54;3.67;;;2.97;;
6939;SDS011;3509;48.510;9.076;2022-08-01T12:49:20;3.55;;;2.97;;
6939;SDS011;3509;48.510;9.076;2022-08-01T12:51:46;4.68;;;2.85;;
6939;SDS011;3509;48.510;9.076;2022-08-01T12:54:11;6.15;;;3.00;;
6939;SDS011;3509;48.510;9.076;2022-08-01T12:56:37;5.70;;;3.58;;
6939;SDS011;3509;48.510;9.076;2022-08-01T12:59:18;3.75;;;2.75;;
6939;SDS011;3509;48.510;9.076;2022-08-01T13:01:45;3.22;;;2.90;;
6939;SDS011;3509;48.510;9.076;2022-08-01T13:04:11;5.30;;;3.47;;
6939;SDS011;3509;48.510;9.076;2022-08-01T13:06:37;3.83;;;3.50;;
6939;SDS011;3509;48.510;9.076;2022-08-01T13:09:06;7.20;;;3.28;;
6939;SDS011;3509;48.510;9.076;2022-08-01T13:11:34;4.90;;;3.65;;
6939;SDS011;3509;48.510;9.076;2022-08-01T13:13:59;5.47;;;3.20;;
6939;SDS011;3509;48.510;9.076;2022-08-01T13:16:26;5.95;;;3.47;;
6939;SDS011;3509;48.510;9.076;2022-08-01T13:18:56;3.92;;;3.45;;
6939;SDS011;3509;48.510;9.076;2022-08-01T13:21:23;4.32;;;3.45;;
6939;SDS011;3509;48.510;9.076;2022-08-01T13:29:05;4.15;;;3.38;;
6939;SDS011;3509;48.510;9.076;2022-08-01T13:31:32;3.40;;;3.10;;
6939;SDS011;3509;48.510;9.076;2022-08-01T13:33:59;3.53;;;3.22;;
6939;SDS011;3509;48.510;9.076;2022-08-01T13:36:25;4.75;;;3.22;;
6939;SDS011;3509;48.510;9.076;2022-08-01T13:38:56;6.63;;;3.15;;
6939;SDS011;3509;48.510;9.076;2022-08-01T13:41:41;3.60;;;3.30;;
6939;SDS011;3509;48.510;9.076;2022-08-01T13:44:07;3.33;;;3.03;;
6939;SDS011;3509;48.510;9.076;2022-08-01T13:46:34;3.35;;;2.85;;
6939;SDS011;3509;48.510;9.076;2022-08-01T13:49:01;7.80;;;2.95;;
6939;SDS011;3509;48.510;9.076;2022-08-01T13:51:28;4.38;;;2.90;;
6939;SDS011;3509;48.510;9.076;2022-08-01T13:53:53;4.78;;;2.83;;
6939;SDS011;3509;48.510;9.076;2022-08-01T13:56:19;4.28;;;2.90;;
6939;SDS011;3509;48.510;9.076;2022-08-01T13:58:45;5.50;;;3.20;;
6939;SDS011;3509;48.510;9.076;2022-08-01T14:01:11;5.53;;;2.83;;
6939;SDS011;3509;48.510;9.076;2022-08-01T14:03:37;3.05;;;2.83;;
6939;SDS011;3509;48.510;9.076;2022-08-01T14:06:03;5.20;;;3.13;;
6939;SDS011;3509;48.510;9.076;2022-08-01T14:08:29;5.22;;;3.10;;
6939;SDS011;3509;48.510;9.076;2022-08-01T14:10:55;3.75;;;2.90;;
6939;SDS011;3509;48.510;9.076;2022-08-01T14:13:23;4.55;;;3.35;;
6939;SDS011;3509;48.510;9.076;2022-08-01T14:15:49;4.05;;;3.25;;
6939;SDS011;3509;48.510;9.076;2022-08-01T14:18:15;3.67;;;2.88;;
6939;SDS011;3509;48.510;9.076;2022-08-01T14:20:41;3.00;;;2.70;;
6939;SDS011;3509;48.510;9.076;2022-08-01T14:23:07;3.20;;;2.90;;
6939;SDS011;3509;48.510;9.076;2022-08-01T14:25:33;3.40;;;2.90;;
6939;SDS011;3509;48.510;9.076;2022-08-01T14:27:59;3.53;;;3.00;;
6939;SDS011;3509;48.510;9.076;2022-08-01T14:30:25;4.10;;;3.15;;
6939;SDS011;3509;48.510;9.076;2022-08-01T14:32:51;3.60;;;3.08;;
6939;SDS011;3509;48.510;9.076;2022-08-01T14:35:16;3.20;;;2.90;;
6939;SDS011;3509;48.510;9.076;2022-08-01T14:37:42;4.95;;;3.13;;
6939;SDS011;3509;48.510;9.076;2022-08-01T14:40:08;8.95;;;3.60;;
6939;SDS011;3509;48.510;9.076;2022-08-01T14:42:35;7.65;;;3.75;;
6939;SDS011;3509;48.510;9.076;2022-08-01T14:45:01;4.60;;;3.47;;
6939;SDS011;3509;48.510;9.076;2022-08-01T14:47:28;5.72;;;3.83;;
6939;SDS011;3509;48.510;9.076;2022-08-01T14:49:53;5.40;;;3.95;;
6939;SDS011;3509;48.510;9.076;2022-08-01T14:52:19;7.20;;;3.83;;
6939;SDS011;3509;48.510;9.076;2022-08-01T14:54:45;4.82;;;4.00;;
6939;SDS011;3509;48.510;9.076;2022-08-01T14:57:10;5.78;;;3.97;;
6939;SDS011;3509;48.510;9.076;2022-08-01T14:59:36;4.60;;;4.10;;
6939;SDS011;3509;48.510;9.076;2022-08-01T15:02:02;8.45;;;4.30;;
6939;SDS011;3509;48.510;9.076;2022-08-01T15:04:28;5.03;;;3.97;;
6939;SDS011;3509;48.510;9.076;2022-08-01T15:06:55;6.65;;;4.18;;
6939;SDS011;3509;48.510;9.076;2022-08-01T15:09:21;5.05;;;3.60;;
6939;SDS011;3509;48.510;9.076;2022-08-01T15:11:48;5.85;;;3.42;;
6939;SDS011;3509;48.510;9.076;2022-08-01T15:14:13;5.25;;;3.15;;
6939;SDS011;3509;48.510;9.076;2022-08-01T15:16:57;4.07;;;2.95;;
6939;SDS011;3509;48.510;9.076;2022-08-01T15:19:23;4.05;;;3.20;;
6939;SDS011;3509;48.510;9.076;2022-08-01T15:21:49;6.90;;;3.00;;
6939;SDS011;3509;48.510;9.076;2022-08-01T15:24:14;4.55;;;3.10;;
6939;SDS011;3509;48.510;9.076;2022-08-01T15:26:40;3.10;;;2.80;;
6939;SDS011;3509;48.510;9.076;2022-08-01T15:29:06;5.47;;;3.10;;
6939;SDS011;3509;48.510;9.076;2022-08-01T15:31:31;5.30;;;2.83;;
6939;SDS011;3509;48.510;9.076;2022-08-01T15:33:57;4.05;;;3.13;;
6939;SDS011;3509;48.510;9.076;2022-08-01T15:36:24;4.63;;;3.10;;
6939;SDS011;3509;48.510;9.076;2022-08-01T15:38:50;5.30;;;2.88;;
6939;SDS011;3509;48.510;9.076;2022-08-01T15:41:16;4.72;;;3.05;;
6939;SDS011;3509;48.510;9.076;2022-08-01T15:43:41;7.57;;;3.50;;
6939;SDS011;3509;48.510;9.076;2022-08-01T15:46:07;3.38;;;2.70;;
6939;SDS011;3509;48.510;9.076;2022-08-01T15:48:32;3.40;;;2.97;;
6939;SDS011;3509;48.510;9.076;2022-08-01T15:50:58;4.15;;;3.28;;
6939;SDS011;3509;48.510;9.076;2022-08-01T15:53:24;4.70;;;3.20;;
6939;SDS011;3509;48.510;9.076;2022-08-01T15:55:49;5.18;;;3.20;;
6939;SDS011;3509;48.510;9.076;2022-08-01T15:58:15;4.25;;;3.15;;
6939;SDS011;3509;48.510;9.076;2022-08-01T16:00:41;4.75;;;2.80;;
6939;SDS011;3509;48.510;9.076;2022-08-01T16:03:07;7.97;;;3.08;;
6939;SDS011;3509;48.510;9.076;2022-08-01T16:05:34;7.65;;;3.08;;
6939;SDS011;3509;48.510;9.076;2022-08-01T16:08:00;4.05;;;2.95;;
6939;SDS011;3509;48.510;9.076;2022-08-01T16:10:27;3.47;;;3.17;;
6939;SDS011;3509;48.510;9.076;2022-08-01T16:12:53;7.93;;;3.33;;